createdAt,value
2018-09-18T00:00:52.388Z,14.00
2018-09-18T00:03:34.907Z,14.00
2018-09-18T00:06:10.073Z,14.00
2018-09-18T00:08:43.297Z,14.00
2018-09-18T00:11:29.797Z,14.00
2018-09-18T00:14:03.541Z,14.00
2018-09-18T00:16:33.001Z,13.90
2018-09-18T00:19:11.249Z,13.90
2018-09-18T00:21:39.889Z,13.90
2018-09-18T00:24:08.273Z,13.80
2018-09-18T00:26:36.679Z,13.80
2018-09-18T00:29:05.344Z,13.80
2018-09-18T00:31:35.011Z,13.80
2018-09-18T00:34:03.677Z,13.80
2018-09-18T00:36:32.369Z,13.80
2018-09-18T00:39:01.005Z,13.80
2018-09-18T00:41:30.615Z,13.80
2018-09-18T00:43:59.305Z,13.80
2018-09-18T00:46:28.933Z,13.70
2018-09-18T00:48:57.600Z,13.70
2018-09-18T00:51:31.478Z,13.60
2018-09-18T00:53:59.876Z,13.60
2018-09-18T00:56:28.266Z,13.60
2018-09-18T00:58:58.754Z,13.50
2018-09-18T01:01:35.161Z,13.50
2018-09-18T01:04:05.724Z,13.40
2018-09-18T01:06:36.306Z,13.40
2018-09-18T01:09:08.583Z,13.40
2018-09-18T01:11:41.870Z,13.30
2018-09-18T01:14:24.704Z,13.30
2018-09-18T01:16:53.160Z,13.30
2018-09-18T01:19:21.796Z,13.30
2018-09-18T01:21:57.300Z,13.30
2018-09-18T01:24:33.290Z,13.30
2018-09-18T01:27:03.810Z,13.30
2018-09-18T01:29:38.648Z,13.20
2018-09-18T01:32:11.048Z,13.20
2018-09-18T01:34:47.108Z,13.20
2018-09-18T01:37:26.896Z,13.20
2018-09-18T01:39:55.618Z,13.10
2018-09-18T01:42:27.668Z,13.00
2018-09-18T01:44:58.436Z,13.00
2018-09-18T01:47:28.920Z,13.00
2018-09-18T01:49:58.601Z,13.00
2018-09-18T01:52:32.439Z,12.90
2018-09-18T01:55:00.846Z,12.90
2018-09-18T01:57:30.527Z,12.90
2018-09-18T02:00:10.594Z,12.80
2018-09-18T02:02:41.059Z,12.90
2018-09-18T02:05:09.761Z,12.80
2018-09-18T02:07:38.463Z,12.80
2018-09-18T02:10:07.115Z,12.80
2018-09-18T02:12:42.594Z,12.70
2018-09-18T02:15:17.779Z,12.80
2018-09-18T02:17:49.757Z,12.80
2018-09-18T02:20:21.628Z,12.80
2018-09-18T02:22:51.249Z,12.80
2018-09-18T02:25:24.168Z,12.80
2018-09-18T02:27:52.866Z,12.80
2018-09-18T02:30:21.601Z,12.70
2018-09-18T02:32:51.194Z,12.70
2018-09-18T02:35:27.153Z,12.70
2018-09-18T02:38:06.950Z,12.70
2018-09-18T02:40:39.302Z,12.70
2018-09-18T02:43:07.965Z,12.70
2018-09-18T02:45:36.375Z,12.70
2018-09-18T02:48:05.115Z,12.80
2018-09-18T02:50:33.797Z,12.70
2018-09-18T02:53:02.430Z,12.70
2018-09-18T02:55:31.343Z,12.80
2018-09-18T02:57:59.737Z,12.70
2018-09-18T03:00:28.123Z,12.70
2018-09-18T03:02:57.838Z,12.70
2018-09-18T03:05:27.365Z,12.70
2018-09-18T03:07:58.061Z,12.70
2018-09-18T03:10:26.653Z,12.70
2018-09-18T03:12:57.089Z,12.70
2018-09-18T03:15:31.635Z,12.70
2018-09-18T03:18:06.450Z,12.70
2018-09-18T03:20:41.041Z,12.70
2018-09-18T03:23:15.582Z,12.70
2018-09-18T03:25:47.307Z,12.70
2018-09-18T03:28:22.756Z,12.70
2018-09-18T03:30:59.094Z,12.60
2018-09-18T03:33:28.751Z,12.70
2018-09-18T03:35:57.457Z,12.70
2018-09-18T03:38:27.039Z,12.70
2018-09-18T03:41:05.841Z,12.70
2018-09-18T03:43:34.195Z,12.70
2018-09-18T03:46:02.619Z,12.70
2018-09-18T03:48:39.183Z,12.70
2018-09-18T03:51:15.115Z,12.70
2018-09-18T03:53:55.781Z,12.80
2018-09-18T03:56:29.963Z,12.80
2018-09-18T03:58:59.581Z,12.70
2018-09-18T04:01:28.243Z,12.70
2018-09-18T04:03:57.854Z,12.70
2018-09-18T04:06:26.518Z,12.70
2018-09-18T04:08:55.149Z,12.80
2018-09-18T04:11:23.528Z,12.70
2018-09-18T04:13:51.965Z,12.70
2018-09-18T04:16:22.511Z,12.80
2018-09-18T04:18:51.184Z,12.80
2018-09-18T04:21:19.902Z,12.80
2018-09-18T04:23:48.544Z,12.80
2018-09-18T04:26:24.036Z,12.80
2018-09-18T04:28:57.268Z,12.80
2018-09-18T04:31:29.986Z,12.80
2018-09-18T04:33:58.743Z,12.90
2018-09-18T04:36:31.538Z,12.90
2018-09-18T04:39:07.388Z,12.90
2018-09-18T04:41:39.823Z,12.90
2018-09-18T04:44:10.068Z,13.00
2018-09-18T04:46:38.698Z,13.00
2018-09-18T04:49:09.252Z,13.00
2018-09-18T04:51:37.909Z,13.00
2018-09-18T04:54:08.336Z,13.00
2018-09-18T04:56:36.792Z,13.00
2018-09-18T04:59:07.352Z,13.00
2018-09-18T05:01:36.484Z,13.00
2018-09-18T05:04:05.074Z,13.10
2018-09-18T05:06:37.383Z,13.10
2018-09-18T05:09:18.061Z,13.10
2018-09-18T05:11:50.788Z,13.10
2018-09-18T05:14:19.469Z,13.10
2018-09-18T05:16:48.095Z,13.10
2018-09-18T05:19:24.463Z,13.20
2018-09-18T05:21:54.048Z,13.10
2018-09-18T05:24:23.714Z,13.10
2018-09-18T05:26:53.321Z,13.20
2018-09-18T05:29:21.990Z,13.20
2018-09-18T05:31:51.636Z,13.20
2018-09-18T05:34:23.724Z,13.30
2018-09-18T05:36:57.260Z,13.30
2018-09-18T05:39:25.997Z,13.30
2018-09-18T05:42:04.316Z,13.30
2018-09-18T05:44:33.022Z,13.40
2018-09-18T05:47:01.659Z,13.40
2018-09-18T05:49:38.214Z,13.50
2018-09-18T05:52:06.785Z,13.50
2018-09-18T05:54:35.377Z,13.60
2018-09-18T05:57:04.032Z,13.60
2018-09-18T05:59:32.933Z,13.70
2018-09-18T06:02:01.365Z,13.70
2018-09-18T06:04:30.121Z,13.80
2018-09-18T06:06:59.729Z,13.80
2018-09-18T06:09:40.908Z,13.90
2018-09-18T06:12:13.865Z,13.90
2018-09-18T06:14:48.215Z,14.00
2018-09-18T06:17:20.465Z,14.10
2018-09-18T06:19:48.973Z,14.10
2018-09-18T06:22:17.633Z,14.30
2018-09-18T06:24:46.378Z,14.30
2018-09-18T06:27:15.889Z,14.40
2018-09-18T06:29:48.581Z,14.50
2018-09-18T06:32:17.258Z,14.70
2018-09-18T06:34:49.089Z,14.80
2018-09-18T06:37:17.659Z,15.10
2018-09-18T06:39:46.017Z,15.20
2018-09-18T06:42:20.355Z,15.30
2018-09-18T06:44:48.981Z,15.50
2018-09-18T06:47:21.662Z,15.70
2018-09-18T06:49:52.174Z,15.70
2018-09-18T06:52:35.041Z,15.90
2018-09-18T06:55:09.218Z,16.00
2018-09-18T06:57:49.928Z,16.20
2018-09-18T07:00:21.994Z,16.40
2018-09-18T07:05:45.308Z,16.80
2018-09-18T07:08:17.806Z,17.10
2018-09-18T07:10:52.126Z,17.30
2018-09-18T07:13:20.745Z,17.50
2018-09-18T07:16:05.756Z,17.70
2018-09-18T07:18:39.885Z,17.90
2018-09-18T07:21:10.503Z,18.20
2018-09-18T07:23:40.481Z,18.30
2018-09-18T07:26:10.031Z,18.60
2018-09-18T07:28:39.514Z,18.70
2018-09-18T07:31:14.690Z,18.70
2018-09-18T07:33:47.119Z,18.80
2018-09-18T07:36:39.731Z,18.90
2018-09-18T07:39:13.192Z,19.10
2018-09-18T07:41:41.744Z,19.20
2018-09-18T07:44:21.171Z,19.30
2018-09-18T07:46:55.784Z,19.40
2018-09-18T07:49:28.166Z,19.50
2018-09-18T07:51:58.640Z,19.60
2018-09-18T07:54:28.236Z,19.70
2018-09-18T07:56:57.830Z,19.80
2018-09-18T07:59:29.915Z,19.90
2018-09-18T08:02:13.300Z,20.00
2018-09-18T08:04:41.714Z,20.10
2018-09-18T08:07:10.395Z,20.10
2018-09-18T08:09:44.280Z,20.30
2018-09-18T08:12:20.336Z,20.30
2018-09-18T08:14:50.857Z,20.50
2018-09-18T08:17:23.574Z,20.60
2018-09-18T08:19:54.052Z,20.70
2018-09-18T08:22:26.790Z,20.80
2018-09-18T08:24:55.419Z,20.90
2018-09-18T08:27:29.344Z,21.10
2018-09-18T08:30:01.402Z,21.20
2018-09-18T08:32:32.913Z,21.30
2018-09-18T08:35:02.490Z,21.40
2018-09-18T08:37:31.151Z,21.40
2018-09-18T08:40:07.736Z,21.40
2018-09-18T08:42:36.216Z,21.40
2018-09-18T08:45:06.187Z,21.50
2018-09-18T08:47:47.852Z,21.70
2018-09-18T08:50:16.521Z,21.70
2018-09-18T08:52:50.337Z,21.80
2018-09-18T08:55:35.598Z,21.80
2018-09-18T08:58:15.646Z,21.90
2018-09-18T09:00:52.092Z,21.90
2018-09-18T09:03:22.707Z,21.90
2018-09-18T09:05:59.291Z,21.90
2018-09-18T09:08:42.461Z,22.00
2018-09-18T09:11:25.209Z,22.00
2018-09-18T09:14:00.969Z,22.00
2018-09-18T09:16:31.454Z,22.00
2018-09-18T09:19:01.452Z,22.00
2018-09-18T09:21:36.260Z,22.10
2018-09-18T09:24:04.973Z,22.10
2018-09-18T09:26:40.363Z,22.30
2018-09-18T09:29:09.165Z,22.30
2018-09-18T09:31:42.377Z,22.30
2018-09-18T09:34:11.967Z,22.30
2018-09-18T09:36:40.649Z,22.50
2018-09-18T09:39:11.502Z,22.60
2018-09-18T09:41:41.036Z,22.60
2018-09-18T09:44:11.046Z,22.70
2018-09-18T09:46:45.215Z,22.70
2018-09-18T09:49:29.509Z,22.80
2018-09-18T09:52:02.362Z,22.80
2018-09-18T09:54:50.886Z,22.80
2018-09-18T09:57:23.606Z,22.90
2018-09-18T09:59:53.168Z,23.00
2018-09-18T10:02:34.124Z,23.00
2018-09-18T10:05:08.123Z,23.10
2018-09-18T10:07:37.649Z,23.10
2018-09-18T10:10:19.582Z,23.30
2018-09-18T10:12:48.263Z,23.30
2018-09-18T10:15:16.937Z,23.20
2018-09-18T10:18:08.086Z,23.20
2018-09-18T10:20:38.599Z,23.40
2018-09-18T10:23:11.377Z,23.40
2018-09-18T10:25:44.228Z,23.50
2018-09-18T10:28:12.784Z,23.60
2018-09-18T10:30:41.465Z,23.60
2018-09-18T10:33:10.074Z,23.70
2018-09-18T10:35:40.920Z,23.80
2018-09-18T10:38:09.674Z,23.80
2018-09-18T10:40:42.064Z,23.90
2018-09-18T10:43:14.698Z,24.00
2018-09-18T10:45:45.205Z,24.10
2018-09-18T10:48:15.720Z,24.10
2018-09-18T10:50:44.534Z,24.10
2018-09-18T10:53:13.152Z,24.10
2018-09-18T10:55:42.030Z,24.10
2018-09-18T10:58:11.728Z,24.20
2018-09-18T11:00:40.366Z,24.20
2018-09-18T11:03:14.797Z,24.30
2018-09-18T11:05:44.592Z,24.40
2018-09-18T11:08:13.393Z,24.50
2018-09-18T11:10:41.949Z,24.60
2018-09-18T11:13:10.809Z,24.70
2018-09-18T11:15:41.378Z,24.70
2018-09-18T11:18:11.080Z,24.80
2018-09-18T11:20:39.644Z,24.90
2018-09-18T11:23:09.265Z,24.80
2018-09-18T11:25:38.365Z,24.80
2018-09-18T11:28:08.137Z,24.90
2018-09-18T11:30:37.825Z,25.10
2018-09-18T11:33:06.499Z,25.10
2018-09-18T11:35:35.235Z,25.20
2018-09-18T11:38:10.716Z,25.20
2018-09-18T11:40:39.337Z,25.20
2018-09-18T11:43:22.360Z,25.30
2018-09-18T11:45:57.768Z,25.30
2018-09-18T11:48:28.168Z,25.30
2018-09-18T11:51:03.894Z,25.40
2018-09-18T11:53:32.603Z,25.40
2018-09-18T11:56:07.065Z,25.40
2018-09-18T11:58:37.595Z,25.50
2018-09-18T12:01:06.321Z,25.50
2018-09-18T12:03:35.127Z,25.50
2018-09-18T12:06:15.137Z,25.50
2018-09-18T12:08:46.180Z,25.60
2018-09-18T12:11:14.774Z,25.60
2018-09-18T12:13:46.683Z,25.60
2018-09-18T12:16:16.335Z,25.60
2018-09-18T12:18:45.049Z,25.60
2018-09-18T12:21:13.659Z,25.60
2018-09-18T12:23:44.137Z,25.60
2018-09-18T12:26:13.721Z,25.70
2018-09-18T12:28:46.947Z,25.70
2018-09-18T12:31:15.443Z,25.80
2018-09-18T12:33:57.243Z,25.70
2018-09-18T12:36:31.239Z,25.80
2018-09-18T12:39:12.165Z,25.80
2018-09-18T12:41:48.657Z,25.80
2018-09-18T12:44:18.303Z,25.80
2018-09-18T12:46:52.374Z,25.80
2018-09-18T12:49:30.711Z,25.90
2018-09-18T12:52:03.929Z,25.80
2018-09-18T12:54:44.193Z,25.80
2018-09-18T12:57:20.688Z,25.80
2018-09-18T12:59:49.364Z,25.90
2018-09-18T13:02:19.929Z,25.90
2018-09-18T13:05:08.258Z,25.80
2018-09-18T13:07:42.776Z,25.80
2018-09-18T13:10:14.431Z,25.80
2018-09-18T13:13:05.881Z,25.70
2018-09-18T13:15:41.985Z,25.80
2018-09-18T13:18:10.640Z,25.80
2018-09-18T13:20:43.655Z,25.80
2018-09-18T13:23:13.310Z,25.80
2018-09-18T13:25:47.126Z,25.80
2018-09-18T13:28:19.873Z,25.80
2018-09-18T13:30:48.506Z,26.00
2018-09-18T13:33:35.959Z,25.90
2018-09-18T13:36:07.700Z,25.90
2018-09-18T13:38:37.333Z,26.00
2018-09-18T13:41:07.932Z,26.00
2018-09-18T13:43:39.960Z,26.00
2018-09-18T13:46:08.774Z,25.90
2018-09-18T13:48:42.776Z,25.80
2018-09-18T13:51:17.384Z,25.90
2018-09-18T13:53:46.944Z,25.90
2018-09-18T13:56:21.944Z,25.90
2018-09-18T13:58:56.328Z,25.90
2018-09-18T14:01:26.046Z,25.80
2018-09-18T14:03:56.438Z,25.80
2018-09-18T14:06:28.800Z,25.70
2018-09-18T14:08:58.441Z,25.70
2018-09-18T14:11:36.934Z,25.70
2018-09-18T14:14:06.677Z,25.70
2018-09-18T14:16:35.181Z,25.70
2018-09-18T14:19:04.863Z,25.80
2018-09-18T14:21:33.516Z,25.70
2018-09-18T14:24:02.253Z,25.70
2018-09-18T14:26:31.090Z,25.60
2018-09-18T14:29:00.583Z,25.60
2018-09-18T14:31:49.801Z,25.50
2018-09-18T14:34:18.533Z,25.60
2018-09-18T14:37:06.840Z,25.50
2018-09-18T14:39:37.473Z,25.50
2018-09-18T14:42:11.654Z,25.40
2018-09-18T14:44:44.292Z,25.40
2018-09-18T14:47:13.039Z,25.40
2018-09-18T14:49:42.553Z,25.30
2018-09-18T14:52:12.199Z,25.30
2018-09-18T14:54:41.020Z,25.30
2018-09-18T14:57:10.505Z,25.30
2018-09-18T14:59:40.193Z,25.20
2018-09-18T15:02:12.519Z,25.20
2018-09-18T15:04:42.323Z,25.10
2018-09-18T15:07:10.770Z,25.10
2018-09-18T15:09:41.573Z,25.20
2018-09-18T15:12:11.144Z,25.20
2018-09-18T15:14:41.854Z,25.10
2018-09-18T15:17:10.427Z,25.10
2018-09-18T15:19:39.182Z,25.20
2018-09-18T15:22:07.997Z,25.20
2018-09-18T15:24:36.538Z,25.10
2018-09-18T15:27:05.255Z,25.10
2018-09-18T15:29:33.952Z,25.10
2018-09-18T15:32:03.525Z,25.10
2018-09-18T15:34:32.243Z,25.10
2018-09-18T15:37:06.396Z,25.10
2018-09-18T15:39:35.140Z,25.10
2018-09-18T15:42:03.870Z,25.00
2018-09-18T15:44:38.388Z,25.00
2018-09-18T15:47:09.094Z,24.90
2018-09-18T15:49:38.809Z,24.90
2018-09-18T15:52:07.517Z,24.90
2018-09-18T15:54:37.909Z,24.90
2018-09-18T15:57:07.518Z,24.80
2018-09-18T15:59:42.696Z,24.80
2018-09-18T16:02:12.653Z,24.70
2018-09-18T16:04:45.090Z,24.70
2018-09-18T16:07:13.803Z,24.70
2018-09-18T16:09:43.709Z,24.60
2018-09-18T16:12:26.159Z,24.60
2018-09-18T16:15:00.351Z,24.60
2018-09-18T16:17:30.914Z,24.50
2018-09-18T16:20:00.478Z,24.50
2018-09-18T16:22:34.426Z,24.50
2018-09-18T16:25:05.310Z,24.50
2018-09-18T16:27:33.960Z,24.40
2018-09-18T16:30:02.641Z,24.40
2018-09-18T16:32:35.327Z,24.30
2018-09-18T16:35:03.945Z,24.30
2018-09-18T16:37:35.530Z,24.30
2018-09-18T16:40:05.419Z,24.20
2018-09-18T16:42:33.989Z,24.10
2018-09-18T16:45:04.595Z,24.10
2018-09-18T16:47:39.913Z,24.00
2018-09-18T16:50:09.723Z,24.00
2018-09-18T16:52:39.399Z,23.90
2018-09-18T16:55:08.018Z,23.80
2018-09-18T16:57:36.599Z,23.70
2018-09-18T17:00:05.363Z,23.60
2018-09-18T17:02:34.027Z,23.60
2018-09-18T17:05:03.609Z,23.50
2018-09-18T17:07:36.213Z,23.50
2018-09-18T17:10:05.038Z,23.40
2018-09-18T17:12:33.682Z,23.30
2018-09-18T17:15:04.281Z,23.20
2018-09-18T17:17:32.800Z,23.10
2018-09-18T17:20:01.525Z,23.00
2018-09-18T17:22:34.357Z,22.90
2018-09-18T17:25:03.847Z,22.90
2018-09-18T17:27:32.451Z,22.80
2018-09-18T17:30:01.265Z,22.70
2018-09-18T17:32:45.519Z,22.60
2018-09-18T17:35:16.051Z,22.50
2018-09-18T17:37:44.888Z,22.40
2018-09-18T17:40:13.755Z,22.30
2018-09-18T17:42:42.458Z,22.30
2018-09-18T17:45:11.141Z,22.30
2018-09-18T17:47:40.734Z,22.30
2018-09-18T17:50:11.228Z,22.30
2018-09-18T17:52:39.953Z,22.20
2018-09-18T17:55:08.654Z,22.10
2018-09-18T17:57:39.163Z,22.00
2018-09-18T18:00:08.909Z,21.90
2018-09-18T18:02:38.647Z,21.80
2018-09-18T18:05:07.478Z,21.70
2018-09-18T18:07:36.965Z,21.60
2018-09-18T18:10:06.678Z,21.50
2018-09-18T18:12:43.729Z,21.50
2018-09-18T18:15:20.267Z,21.40
2018-09-18T18:17:48.971Z,21.30
2018-09-18T18:20:21.036Z,21.20
2018-09-18T18:22:49.634Z,21.00
2018-09-18T18:25:18.076Z,21.00
2018-09-18T18:27:47.652Z,20.90
2018-09-18T18:30:16.347Z,20.80
2018-09-18T18:32:44.989Z,20.70
2018-09-18T18:35:13.492Z,20.60
2018-09-18T18:37:42.143Z,20.60
2018-09-18T18:40:10.851Z,20.60
2018-09-18T18:42:39.536Z,20.60
2018-09-18T18:45:09.125Z,20.70
2018-09-18T18:47:37.911Z,20.70
2018-09-18T18:50:06.455Z,20.70
2018-09-18T18:52:35.129Z,20.60
2018-09-18T18:55:03.975Z,20.60
2018-09-18T18:57:32.517Z,20.50
2018-09-18T19:00:07.421Z,20.50
2018-09-18T19:02:36.975Z,20.50
2018-09-18T19:05:18.205Z,20.40
2018-09-18T19:07:55.257Z,20.30
2018-09-18T19:10:24.027Z,20.30
2018-09-18T19:12:52.669Z,20.30
2018-09-18T19:15:21.377Z,20.30
2018-09-18T19:17:50.016Z,20.20
2018-09-18T19:20:19.632Z,20.20
2018-09-18T19:22:48.238Z,20.10
2018-09-18T19:25:22.185Z,20.10
2018-09-18T19:27:50.838Z,20.10
2018-09-18T19:30:19.230Z,20.10
2018-09-18T19:32:55.238Z,20.10
2018-09-18T19:35:25.960Z,20.10
2018-09-18T19:37:59.437Z,20.00
2018-09-18T19:40:31.214Z,20.00
2018-09-18T19:43:01.742Z,19.90
2018-09-18T19:45:33.447Z,19.90
2018-09-18T19:48:03.092Z,19.80
2018-09-18T19:50:31.976Z,19.80
2018-09-18T19:53:01.504Z,19.70
2018-09-18T19:55:32.026Z,19.70
2018-09-18T19:58:00.634Z,19.60
2018-09-18T20:00:30.382Z,19.60
2018-09-18T20:02:58.910Z,19.60
2018-09-18T20:05:27.668Z,19.60
2018-09-18T20:07:56.246Z,19.50
2018-09-18T20:10:25.040Z,19.50
2018-09-18T20:12:54.638Z,19.40
2018-09-18T20:15:24.592Z,19.40
2018-09-18T20:17:53.450Z,19.40
2018-09-18T20:20:21.824Z,19.30
2018-09-18T20:22:50.193Z,19.20
2018-09-18T20:25:19.790Z,19.20
2018-09-18T20:27:51.975Z,19.20
2018-09-18T20:30:20.584Z,19.10
2018-09-18T20:32:54.847Z,19.00
2018-09-18T20:35:28.706Z,19.00
2018-09-18T20:38:02.926Z,18.90
2018-09-18T20:40:31.301Z,18.80
2018-09-18T20:43:07.373Z,18.70
2018-09-18T20:45:37.985Z,18.60
2018-09-18T20:48:07.535Z,18.60
2018-09-18T20:50:36.237Z,18.50
2018-09-18T20:53:05.886Z,18.50
2018-09-18T20:55:34.510Z,18.30
2018-09-18T20:58:06.009Z,18.30
2018-09-18T21:00:34.664Z,18.20
2018-09-18T21:03:03.315Z,18.10
2018-09-18T21:05:32.050Z,18.10
2018-09-18T21:08:02.549Z,17.90
2018-09-18T21:10:32.238Z,17.90
2018-09-18T21:13:04.509Z,17.80
2018-09-18T21:15:36.391Z,17.80
2018-09-18T21:18:04.983Z,17.70
2018-09-18T21:20:33.678Z,17.60
2018-09-18T21:23:02.390Z,17.60
2018-09-18T21:26:15.571Z,17.60
2018-09-18T21:28:49.817Z,17.50
2018-09-18T21:31:30.438Z,17.40
2018-09-18T21:34:03.226Z,17.30
2018-09-18T21:36:33.555Z,17.30
2018-09-18T21:39:12.964Z,17.30
2018-09-18T21:41:42.743Z,17.20
2018-09-18T21:44:12.722Z,17.10
2018-09-18T21:46:45.305Z,17.10
2018-09-18T21:49:17.662Z,17.10
2018-09-18T21:51:51.567Z,17.10
2018-09-18T21:54:22.174Z,17.10
2018-09-18T21:56:56.165Z,17.00
2018-09-18T21:59:24.757Z,16.90
2018-09-18T22:01:53.443Z,16.80
2018-09-18T22:04:25.830Z,16.80
2018-09-18T22:06:54.520Z,16.80
2018-09-18T22:09:23.199Z,16.80
2018-09-18T22:12:14.116Z,16.80
2018-09-18T22:14:44.513Z,16.80
2018-09-18T22:17:33.173Z,16.80
2018-09-18T22:20:01.851Z,16.60
2018-09-18T22:22:40.669Z,16.60
2018-09-18T22:25:13.165Z,16.60
2018-09-18T22:27:45.730Z,16.60
2018-09-18T22:30:24.218Z,16.60
2018-09-18T22:32:52.628Z,16.60
2018-09-18T22:35:28.757Z,16.60
2018-09-18T22:38:20.719Z,16.60
2018-09-18T22:40:51.245Z,16.60
2018-09-18T22:43:30.688Z,16.50
2018-09-18T22:46:21.798Z,16.50
2018-09-18T22:48:51.379Z,16.50
2018-09-18T22:51:21.225Z,16.40
2018-09-18T22:53:54.938Z,16.40
2018-09-18T22:56:25.491Z,16.40
2018-09-18T22:58:55.085Z,16.30
2018-09-18T23:01:25.653Z,16.30
2018-09-18T23:03:55.192Z,16.30
2018-09-18T23:06:25.771Z,16.30
2018-09-18T23:08:54.475Z,16.20
2018-09-18T23:11:24.983Z,16.20
2018-09-18T23:13:53.696Z,16.10
2018-09-18T23:16:24.153Z,16.10
2018-09-18T23:18:53.962Z,16.10
2018-09-18T23:21:26.184Z,16.00
2018-09-18T23:24:06.254Z,16.00
2018-09-18T23:26:34.909Z,15.90
2018-09-18T23:29:03.561Z,15.90
2018-09-18T23:31:52.559Z,15.80
2018-09-18T23:34:21.244Z,15.80
2018-09-18T23:36:50.902Z,15.80
2018-09-18T23:39:33.026Z,15.80
2018-09-18T23:42:07.280Z,15.80
2018-09-18T23:44:36.878Z,15.70
2018-09-18T23:47:23.656Z,15.70
2018-09-18T23:50:03.759Z,15.60
2018-09-18T23:52:37.155Z,15.60
2018-09-18T23:55:05.764Z,15.60
2018-09-18T23:57:36.264Z,15.50
